FW0896 Weather Reports


time (UTC)temp
C
wind
direction
speed
KPH
gust
KPH
rain 1hr
cm
rain 24hr
cm
rain mn
cm
humidity
%
barometer
mb
20220627201554 26 210 6.4 11.3 0.00 0.00 0.00 40 1022.8
20220627200054 25 299 1.6 4.8 0.00 0.00 0.00 46 1022.9
20220627194550 26 285 3.2 6.4 0.00 0.00 0.00 43 1023.1
20220627193048 26 229 3.2 11.3 0.00 0.00 0.00 41 1023.2
20220627191544 26 305 4.8 14.5 0.00 0.00 0.00 41 1023.4
20220627190041 25 307 3.2 14.5 0.00 0.00 0.00 42 1023.5
20220627184538 25 322 3.2 11.3 0.00 0.00 0.00 43 1023.7
20220627183036 25 318 4.8 16.1 0.00 0.00 0.00 44 1023.9
20220627181534 25 304 8.0 17.7 0.00 0.00 0.00 46 1024.0
20220627180039 25 309 6.4 9.7 0.00 0.00 0.00 46 1024.1
20220627174528 24 325 4.8 11.3 0.00 0.00 0.00 46 1024.3
20220627173042 24 316 3.2 8.0 0.00 0.00 0.00 48 1024.4
20220627171525 23 324 3.2 12.9 0.00 0.00 0.00 48 1024.5
20220627170021 23 290 4.8 11.3 0.00 0.00 0.00 48 1024.6
20220627164517 23 299 3.2 12.9 0.00 0.00 0.00 50 1024.7
20220627163016 23 314 4.8 11.3 0.00 0.00 0.00 49 1024.7
20220627161514 22 307 4.8 9.7 0.00 0.00 0.00 49 1024.8
20220627160025 22 316 6.4 11.3 0.00 0.00 0.00 50 1024.8
20220627154511 22 330 6.4 14.5 0.00 0.00 0.00 49 1024.9
20220627153008 21 342 8.0 12.9 0.00 0.00 0.00 51 1025.0
20220627151513 21 343 8.0 12.9 0.00 0.00 0.00 52 1025.2
20220627150006 21 328 4.8 9.7 0.00 0.00 0.00 52 1025.3
20220627144558 21 330 4.8 9.7 0.00 0.00 0.00 55 1025.4
20220627143056 20 308 3.2 4.8 0.00 0.00 0.00 58 1025.3
20220627141549 19 333 3.2 8.0 0.00 0.00 0.00 58 1025.3
20220627140055 18 335 3.2 6.4 0.00 0.00 0.00 60 1025.2
20220627134543 18 220 0.0 4.8 0.00 0.00 0.00 64 1025.2
20220627133038 17 220 1.6 4.8 0.00 0.00 0.00 69 1025.2
20220627131536 16 220 1.6 6.4 0.00 0.00 0.00 69 1025.0
20220627130030 15 220 0.0 6.4 0.00 0.00 0.00 71 1025.0
20220627124532 15 236 4.8 9.7 0.00 0.00 0.00 75 1024.9
20220627123032 13 225 3.2 8.0 0.00 0.00 0.00 76 1024.7
20220627121537 13 221 4.8 9.7 0.00 0.00 0.00 76 1024.6
20220627120026 12 237 6.4 9.7 0.00 0.00 0.00 78 1024.6
20220627114537 12 227 4.8 9.7 0.00 0.00 0.00 77 1024.8
20220627113024 12 230 4.8 9.7 0.00 0.00 0.00 76 1024.6
20220627111523 11 233 4.8 8.0 0.00 0.00 0.00 77 1024.6
20220627110019 11 206 4.8 8.0 0.00 0.00 0.00 77 1024.5
20220627104518 11 206 3.2 6.4 0.00 0.00 0.00 76 1024.3
20220627103018 11 231 4.8 8.0 0.00 0.00 0.00 76 1024.3
20220627101517 11 207 3.2 8.0 0.00 0.00 0.00 77 1024.3
20220627100014 11 210 3.2 8.0 0.00 0.00 0.00 74 1024.3
20220627094511 12 252 4.8 6.4 0.00 0.00 0.00 74 1024.1
20220627093011 12 269 4.8 6.4 0.00 0.00 0.00 72 1024.1
20220627091511 12 269 1.6 6.4 0.00 0.00 0.00 73 1024.2
20220627090010 12 269 3.2 6.4 0.00 0.00 0.00 73 1024.1
20220627084506 13 298 3.2 4.8 0.00 0.00 0.00 69 1024.0
20220627083007 13 298 0.0 0.0 0.00 0.00 0.00 68 1023.9
20220627081508 12 298 0.0 4.8 0.00 0.00 0.00 70 1023.8
20220627080004 13 298 3.2 4.8 0.00 0.00 0.00 70 1023.9
20220627074510 13 330 0.0 0.0 0.00 0.00 0.00 70 1023.9
20220627073002 12 330 0.0 0.0 0.00 0.00 0.00 70 1023.9
20220627071601 13 330 0.0 3.2 0.00 0.00 0.00 69 1023.8
20220627070057 14 330 1.6 4.8 0.00 0.00 0.00 67 1023.7
20220627064555 15 330 1.6 4.8 0.00 0.00 0.00 64 1023.7
20220627063055 14 330 1.6 3.2 0.00 0.00 0.00 65 1023.9
20220627061553 14 330 3.2 6.4 0.00 0.00 0.00 66 1024.0
20220627060052 14 330 3.2 4.8 0.00 0.00 0.00 66 1024.1
20220627054550 14 330 1.6 4.8 0.00 0.00 0.00 65 1024.1
20220627053048 15 330 1.6 4.8 0.00 0.00 0.00 63 1024.1
20220627051545 15 330 0.0 0.0 0.00 0.00 0.00 61 1024.0
20220627050106 15 330 0.0 0.0 0.00 0.00 0.00 59 1023.7
20220627044547 16 330 0.0 0.0 0.00 0.00 0.00 58 1023.9
20220627043040 16 330 0.0 0.0 0.00 0.00 0.00 58 1023.5
20220627041552 16 330 0.0 0.0 0.00 0.00 0.00 58 1023.4
20220627040039 16 330 0.0 0.0 0.00 0.00 0.00 56 1023.4
20220627034537 17 330 0.0 0.0 0.00 0.00 0.00 55 1023.5
20220627033049 17 330 0.0 0.0 0.00 0.00 0.00 57 1023.3
20220627031543 17 330 0.0 3.2 0.00 0.00 0.00 53 1023.1
20220627030035 17 330 1.6 4.8 0.00 0.00 0.00 51 1022.9
20220627024532 18 330 3.2 6.4 0.00 0.00 0.00 51 1022.7
20220627023039 18 330 3.2 6.4 0.00 0.00 0.00 50 1022.5
20220627021536 18 330 3.2 6.4 0.00 0.00 0.00 49 1022.3
20220627020034 19 330 4.8 9.7 0.00 0.00 0.00 47 1022.2
20220627014532 20 331 6.4 14.5 0.00 0.00 0.00 44 1022.1
20220627013033 20 320 12.9 20.9 0.00 0.00 0.00 43 1022.0
20220627011529 20 324 9.7 19.3 0.00 0.00 0.00 42 1021.8
20220627010028 21 323 11.3 19.3 0.00 0.00 0.00 43 1021.6
20220627004527 21 300 11.3 19.3 0.00 0.00 0.00 43 1021.5
20220627003026 21 347 12.9 27.4 0.00 0.00 0.00 41 1021.6
20220627001527 21 331 11.3 20.9 0.00 0.00 0.00 41 1021.3
20220627000025 22 315 9.7 24.1 0.00 0.00 0.00 40 1021.2
20220626234523 22 335 11.3 22.5 0.00 0.00 0.00 40 1021.3
20220626233024 22 326 9.7 22.5 0.00 0.00 0.00 38 1021.2
20220626231531 22 333 14.5 22.5 0.00 0.00 0.00 41 1021.2
20220626230021 22 319 12.9 22.5 0.00 0.00 0.00 40 1021.1
20220626224519 22 315 11.3 19.3 0.00 0.00 0.00 41 1021.0
20220626223029 22 309 14.5 27.4 0.00 0.00 0.00 39 1021.2
20220626221517 22 323 17.7 29.0 0.00 0.00 0.00 40 1021.3
20220626220016 22 333 14.5 24.1 0.00 0.00 0.00 43 1021.3
20220626214515 22 321 11.3 17.7 0.00 0.00 0.00 43 1021.4
20220626213013 22 312 11.3 20.9 0.00 0.00 0.00 44 1021.7
20220626211510 21 310 12.9 20.9 0.00 0.00 0.00 44 1021.5
20220626210009 21 333 19.3 27.4 0.00 0.00 0.00 45 1021.7
20220626204508 21 328 14.5 30.6 0.00 0.00 0.00 46 1021.5
20220626203007 21 335 12.9 27.4 0.00 0.00 0.00 45 1021.6